Vejrstation Sortsø Strand
Vejrstation Sortsø Strands historiske vejrdata
 
Daily Summary for December 03, 2022 Units:  Metric    English   Both
Daily Weekly Monthly Yearly Custom
  Current: High: Low: Average:
Temperature: 4.1 °C 4.7 °C 4.0 °C 4.3 °C
Dew Point: 1.6 °C 2.0 °C 1.6 °C 1.8 °C
Humidity: 84% 84% 83% 84%
Wind Speed: 37km/h 43km/h 34km/h 38km/h
Wind Gust: 34km/h 36km/h - -
WindNNE - - NNE
Pressure: 1028.1 hPa 1029.1 hPa 1028.1 hPa -
Precipitation: 0.00 mm      
Historical Graphs
 
 
Tabular Data for December 03, 2022
Time Temperature Dew Point Pressure Wind Wind Speed Wind Gust Humidity Rainfall Rate (Hourly) solar
00:04 4.7 °C 2.0 °C 1029.1 hPa NNE 39 km/h 34 km/h 83% 0.00 mm 0.00 W/m2
00:09 4.7 °C 2.0 °C 1029.1 hPa NNE 37 km/h 34 km/h 83% 0.00 mm 0.00 W/m2
00:14 4.6 °C 1.9 °C 1029.0 hPa NNE 40 km/h 32 km/h 83% 0.00 mm 0.00 W/m2
00:19 4.6 °C 1.9 °C 1029.0 hPa NNE 41 km/h 34 km/h 83% 0.00 mm 0.00 W/m2
00:24 4.6 °C 1.9 °C 1029.0 hPa NNE 35 km/h 32 km/h 83% 0.00 mm 0.00 W/m2
00:29 4.5 °C 1.9 °C 1029.0 hPa NNE 37 km/h 32 km/h 83% 0.00 mm 0.00 W/m2
00:34 4.5 °C 1.9 °C 1028.9 hPa NNE 35 km/h 31 km/h 83% 0.00 mm 0.00 W/m2
00:39 4.4 °C 1.8 °C 1028.9 hPa NNE 39 km/h 33 km/h 83% 0.00 mm 0.00 W/m2
00:44 4.4 °C 1.8 °C 1028.9 hPa NNE 39 km/h 33 km/h 83% 0.00 mm 0.00 W/m2
00:49 4.4 °C 1.8 °C 1028.9 hPa NNE 39 km/h 33 km/h 83% 0.00 mm 0.00 W/m2
00:54 4.4 °C 1.8 °C 1028.9 hPa NNE 34 km/h 32 km/h 83% 0.00 mm 0.00 W/m2
00:59 4.4 °C 1.8 °C 1028.8 hPa NNE 35 km/h 30 km/h 83% 0.00 mm 0.00 W/m2
01:04 4.4 °C 1.8 °C 1028.8 hPa NE 39 km/h 33 km/h 83% 0.00 mm 0.00 W/m2
01:09 4.4 °C 1.8 °C 1028.8 hPa NE 37 km/h 33 km/h 83% 0.00 mm 0.00 W/m2
01:14 4.4 °C 1.8 °C 1028.7 hPa NNE 37 km/h 32 km/h 83% 0.00 mm 0.00 W/m2
01:19 4.3 °C 1.7 °C 1028.7 hPa NNE 39 km/h 34 km/h 83% 0.00 mm 0.00 W/m2
01:24 4.3 °C 1.9 °C 1028.7 hPa NNE 37 km/h 33 km/h 84% 0.00 mm 0.00 W/m2
01:29 4.3 °C 1.8 °C 1028.6 hPa NNE 37 km/h 33 km/h 84% 0.00 mm 0.00 W/m2
01:34 4.3 °C 1.8 °C 1028.6 hPa NNE 41 km/h 34 km/h 84% 0.00 mm 0.00 W/m2
01:39 4.3 °C 1.8 °C 1028.6 hPa NNE 41 km/h 36 km/h 84% 0.00 mm 0.00 W/m2
01:44 4.3 °C 1.8 °C 1028.5 hPa NNE 41 km/h 35 km/h 84% 0.00 mm 0.00 W/m2
01:49 4.2 °C 1.8 °C 1028.5 hPa NNE 37 km/h 33 km/h 84% 0.00 mm 0.00 W/m2
01:54 4.2 °C 1.8 °C 1028.5 hPa NNE 39 km/h 33 km/h 84% 0.00 mm 0.00 W/m2
01:59 4.2 °C 1.8 °C 1028.4 hPa NNE 37 km/h 33 km/h 84% 0.00 mm 0.00 W/m2
02:04 4.3 °C 1.8 °C 1028.5 hPa NNE 39 km/h 33 km/h 84% 0.00 mm 0.00 W/m2
02:09 4.2 °C 1.8 °C 1028.5 hPa NNE 37 km/h 35 km/h 84% 0.00 mm 0.00 W/m2
02:14 4.2 °C 1.8 °C 1028.5 hPa NNE 39 km/h 34 km/h 84% 0.00 mm 0.00 W/m2
02:19 4.2 °C 1.7 °C 1028.4 hPa NNE 34 km/h 30 km/h 84% 0.00 mm 0.00 W/m2
02:24 4.2 °C 1.7 °C 1028.4 hPa NNE 39 km/h 34 km/h 84% 0.00 mm 0.00 W/m2
02:29 4.1 °C 1.7 °C 1028.4 hPa NNE 37 km/h 34 km/h 84% 0.00 mm 0.00 W/m2
02:34 4.1 °C 1.7 °C 1028.3 hPa NNE 35 km/h 31 km/h 84% 0.00 mm 0.00 W/m2
02:39 4.1 °C 1.7 °C 1028.3 hPa NNE 39 km/h 33 km/h 84% 0.00 mm 0.00 W/m2
02:44 4.1 °C 1.6 °C 1028.3 hPa NNE 42 km/h 33 km/h 84% 0.00 mm 0.00 W/m2
02:49 4.1 °C 1.6 °C 1028.3 hPa NNE 43 km/h 35 km/h 84% 0.00 mm 0.00 W/m2
02:54 4.1 °C 1.6 °C 1028.3 hPa NNE 37 km/h 32 km/h 84% 0.00 mm 0.00 W/m2
02:59 4.1 °C 1.7 °C 1028.2 hPa NNE 37 km/h 32 km/h 84% 0.00 mm 0.00 W/m2
03:04 4.1 °C 1.7 °C 1028.2 hPa NNE 37 km/h 30 km/h 84% 0.00 mm 0.00 W/m2
03:09 4.1 °C 1.6 °C 1028.2 hPa NNE 39 km/h 34 km/h 84% 0.00 mm 0.00 W/m2
03:14 4.1 °C 1.6 °C 1028.2 hPa NNE 39 km/h 33 km/h 84% 0.00 mm 0.00 W/m2
03:19 4.0 °C 1.6 °C 1028.2 hPa NNE 39 km/h 33 km/h 84% 0.00 mm 0.00 W/m2
03:24 4.1 °C 1.6 °C 1028.2 hPa NNE 37 km/h 33 km/h 84% 0.00 mm 0.00 W/m2
03:29 4.1 °C 1.6 °C 1028.1 hPa NNE 35 km/h 32 km/h 84% 0.00 mm 0.00 W/m2
03:34 4.1 °C 1.7 °C 1028.1 hPa NNE 37 km/h 33 km/h 84% 0.00 mm 0.00 W/m2
03:39 4.1 °C 1.6 °C 1028.1 hPa NNE 37 km/h 34 km/h 84% 0.00 mm 0.00 W/m2
Vejrstation Sortsø Strand
Compliments of Weather Underground - 1 mb

© 2006-2022 strandvejr.dk